createdAt,value
2018-11-02T00:00:09.901Z,2.40
2018-11-02T00:02:39.756Z,2.10
2018-11-02T00:05:09.715Z,2.40
2018-11-02T00:07:39.646Z,2.00
2018-11-02T00:10:09.648Z,2.17
2018-11-02T00:12:39.547Z,2.10
2018-11-02T00:15:09.686Z,2.30
2018-11-02T00:17:39.570Z,2.07
2018-11-02T00:20:09.491Z,2.30
2018-11-02T00:22:39.444Z,2.27
2018-11-02T00:25:09.442Z,2.20
2018-11-02T00:27:39.351Z,1.80
2018-11-02T00:30:09.367Z,1.67
2018-11-02T00:32:39.348Z,2.00
2018-11-02T00:35:09.628Z,1.97
2018-11-02T00:37:39.813Z,2.03
2018-11-02T00:40:10.166Z,2.13
2018-11-02T00:42:40.551Z,1.70
2018-11-02T00:45:12.317Z,1.87
2018-11-02T00:47:42.517Z,2.07
2018-11-02T00:50:13.122Z,1.97
2018-11-02T00:52:43.049Z,2.00
2018-11-02T00:55:12.976Z,1.70
2018-11-02T00:57:42.894Z,1.80
2018-11-02T01:00:14.792Z,1.70
2018-11-02T01:02:45.446Z,1.50
2018-11-02T01:05:15.794Z,1.57
2018-11-02T01:07:45.810Z,1.50
2018-11-02T01:10:15.752Z,1.40
2018-11-02T01:12:45.727Z,1.47
2018-11-02T01:15:16.056Z,1.20
2018-11-02T01:17:46.054Z,1.37
2018-11-02T01:20:16.011Z,1.73
2018-11-02T01:22:45.969Z,1.53
2018-11-02T01:25:16.537Z,1.57
2018-11-02T01:27:46.536Z,1.40
2018-11-02T01:30:16.491Z,1.87
2018-11-02T01:32:46.542Z,1.60
2018-11-02T01:35:16.645Z,1.40
2018-11-02T01:37:46.574Z,1.50
2018-11-02T01:40:16.582Z,1.60
2018-11-02T01:42:46.594Z,1.40
2018-11-02T01:45:16.553Z,1.50
2018-11-02T01:47:46.523Z,1.50
2018-11-02T01:50:16.450Z,1.70
2018-11-02T01:52:46.442Z,1.60
2018-11-02T01:55:16.386Z,1.80
2018-11-02T01:57:46.365Z,1.80
2018-11-02T02:00:16.341Z,1.47
2018-11-02T02:02:46.271Z,1.43
2018-11-02T02:05:16.201Z,1.87
2018-11-02T02:07:46.166Z,1.50
2018-11-02T02:10:16.127Z,1.43
2018-11-02T02:12:46.110Z,1.33
2018-11-02T02:15:16.019Z,1.40
2018-11-02T02:17:45.964Z,1.40
2018-11-02T02:20:15.945Z,1.40
2018-11-02T02:22:45.886Z,1.20
2018-11-02T02:25:15.833Z,1.33
2018-11-02T02:27:45.790Z,1.37
2018-11-02T02:30:15.834Z,1.20
2018-11-02T02:32:45.827Z,1.47
2018-11-02T02:35:15.808Z,1.47
2018-11-02T02:37:45.802Z,1.30
2018-11-02T02:40:16.380Z,1.40
2018-11-02T02:42:46.338Z,1.60
2018-11-02T02:45:16.312Z,1.23
2018-11-02T02:47:46.278Z,1.20
2018-11-02T02:50:16.205Z,1.30
2018-11-02T02:52:46.083Z,1.30
2018-11-02T02:55:16.038Z,1.30
2018-11-02T02:57:46.037Z,1.30
2018-11-02T03:00:16.007Z,1.10
2018-11-02T03:02:45.979Z,1.10
2018-11-02T03:05:15.975Z,1.40
2018-11-02T03:07:45.919Z,1.33
2018-11-02T03:10:16.011Z,1.17
2018-11-02T03:12:45.846Z,1.10
2018-11-02T03:15:15.795Z,1.10
2018-11-02T03:17:45.759Z,0.97
2018-11-02T03:20:15.774Z,1.10
2018-11-02T03:22:45.732Z,1.13
2018-11-02T03:25:15.716Z,1.00
2018-11-02T03:27:45.713Z,1.00
2018-11-02T03:30:15.629Z,1.10
2018-11-02T03:32:45.572Z,1.10
2018-11-02T03:35:15.597Z,0.83
2018-11-02T03:37:45.564Z,1.20
2018-11-02T03:40:15.565Z,1.20
2018-11-02T03:42:45.515Z,1.10
2018-11-02T03:45:15.495Z,1.30
2018-11-02T03:47:45.448Z,1.20
2018-11-02T03:50:15.447Z,1.10
2018-11-02T03:52:45.369Z,1.00
2018-11-02T03:55:15.308Z,1.10
2018-11-02T03:57:45.290Z,0.97
2018-11-02T04:00:15.265Z,0.90
2018-11-02T04:02:45.224Z,1.00
2018-11-02T04:05:15.202Z,1.30
2018-11-02T04:07:45.162Z,1.20
2018-11-02T04:10:15.092Z,1.23
2018-11-02T04:12:45.064Z,1.10
2018-11-02T04:15:15.023Z,1.40
2018-11-02T04:17:45.445Z,1.30
2018-11-02T04:20:15.334Z,1.40
2018-11-02T04:22:45.343Z,1.50
2018-11-02T04:25:15.328Z,1.23
2018-11-02T04:27:45.315Z,1.40
2018-11-02T04:30:15.305Z,1.63
2018-11-02T04:32:45.292Z,1.80
2018-11-02T04:35:15.261Z,1.90
2018-11-02T04:37:45.240Z,1.60
2018-11-02T04:40:15.210Z,1.60
2018-11-02T04:42:45.178Z,2.00
2018-11-02T04:45:15.144Z,1.80
2018-11-02T04:47:45.219Z,1.80
2018-11-02T04:50:15.183Z,1.67
2018-11-02T04:52:45.425Z,1.83
2018-11-02T04:55:15.439Z,1.70
2018-11-02T04:57:45.376Z,2.20
2018-11-02T05:00:15.343Z,1.83
2018-11-02T05:02:45.290Z,2.30
2018-11-02T05:05:15.306Z,2.13
2018-11-02T05:07:45.266Z,2.00
2018-11-02T05:10:15.392Z,2.27
2018-11-02T05:12:45.775Z,2.30
2018-11-02T05:15:15.934Z,2.60
2018-11-02T05:17:46.029Z,2.30
2018-11-02T05:20:15.954Z,2.43
2018-11-02T05:22:45.904Z,2.20
2018-11-02T05:25:16.070Z,2.77
2018-11-02T05:27:46.006Z,2.47
2018-11-02T05:30:15.967Z,2.60
2018-11-02T05:32:45.914Z,2.53
2018-11-02T05:35:15.875Z,2.30
2018-11-02T05:37:45.845Z,2.17
2018-11-02T05:40:15.808Z,2.07
2018-11-02T05:42:45.776Z,1.73
2018-11-02T05:45:15.782Z,2.47
2018-11-02T05:47:45.742Z,2.27
2018-11-02T05:50:15.753Z,2.50
2018-11-02T05:52:45.766Z,2.23
2018-11-02T05:55:15.824Z,2.03
2018-11-02T05:57:45.749Z,2.30
2018-11-02T06:00:15.683Z,2.20
2018-11-02T06:02:45.659Z,2.13
2018-11-02T06:05:15.699Z,2.40
2018-11-02T06:07:45.647Z,2.50
2018-11-02T06:10:15.664Z,2.60
2018-11-02T06:12:45.649Z,2.27
2018-11-02T06:15:15.580Z,2.50
2018-11-02T06:17:45.554Z,2.80
2018-11-02T06:20:15.581Z,2.30
2018-11-02T06:22:45.549Z,2.37
2018-11-02T06:25:15.516Z,2.07
2018-11-02T06:27:45.455Z,2.13
2018-11-02T06:30:15.377Z,2.57
2018-11-02T06:32:45.393Z,2.43
2018-11-02T06:35:15.348Z,2.67
2018-11-02T06:37:45.450Z,2.40
2018-11-02T06:40:15.498Z,2.50
2018-11-02T06:42:45.460Z,2.20
2018-11-02T06:45:15.509Z,1.93
2018-11-02T06:47:45.481Z,2.00
2018-11-02T06:50:15.521Z,2.27
2018-11-02T06:52:45.639Z,1.83
2018-11-02T06:55:15.669Z,1.83
2018-11-02T06:57:45.633Z,1.90
2018-11-02T07:00:15.608Z,1.70
2018-11-02T07:02:45.571Z,2.27
2018-11-02T07:05:15.576Z,2.10
2018-11-02T07:07:45.557Z,2.00
2018-11-02T07:10:15.974Z,1.67
2018-11-02T07:12:46.052Z,2.10
2018-11-02T07:15:16.025Z,2.20
2018-11-02T07:17:46.062Z,1.80
2018-11-02T07:20:16.035Z,1.70
2018-11-02T07:22:46.010Z,1.87
2018-11-02T07:25:15.963Z,2.17
2018-11-02T07:27:45.902Z,1.70
2018-11-02T07:30:15.888Z,1.80
2018-11-02T07:32:45.962Z,1.90
2018-11-02T07:35:15.922Z,2.07
2018-11-02T07:37:45.968Z,2.27
2018-11-02T07:40:15.970Z,1.90
2018-11-02T07:42:45.879Z,1.90
2018-11-02T07:45:15.896Z,1.80
2018-11-02T07:47:45.923Z,1.87
2018-11-02T07:50:15.776Z,1.80
2018-11-02T07:52:45.736Z,1.70
2018-11-02T07:55:16.063Z,2.60
2018-11-02T07:57:46.067Z,2.03
2018-11-02T08:00:17.245Z,1.80
2018-11-02T08:02:47.814Z,1.87
2018-11-02T08:05:17.803Z,2.23
2018-11-02T08:07:47.775Z,2.00
2018-11-02T08:10:17.671Z,2.33
2018-11-02T08:12:47.643Z,2.30
2018-11-02T08:15:17.619Z,2.97
2018-11-02T08:17:47.913Z,3.37
2018-11-02T08:20:17.783Z,3.63
2018-11-02T08:22:47.684Z,3.77
2018-11-02T08:25:17.637Z,4.50
2018-11-02T08:27:47.555Z,4.37
2018-11-02T08:30:17.557Z,4.87
2018-11-02T08:32:47.465Z,4.93
2018-11-02T08:35:17.368Z,5.03
2018-11-02T08:37:47.300Z,4.63
2018-11-02T08:40:17.369Z,4.60
2018-11-02T08:42:47.227Z,4.03
2018-11-02T08:45:17.087Z,5.00
2018-11-02T08:47:46.989Z,4.33
2018-11-02T08:50:17.047Z,4.70
2018-11-02T08:52:46.972Z,4.67
2018-11-02T08:55:16.943Z,4.40
2018-11-02T08:57:46.963Z,4.37
2018-11-02T09:00:16.812Z,4.17
2018-11-02T09:02:46.715Z,4.13
2018-11-02T09:05:16.677Z,4.23
2018-11-02T09:07:46.718Z,4.10
2018-11-02T09:10:16.642Z,3.97
2018-11-02T09:12:46.626Z,3.83
2018-11-02T09:15:16.566Z,4.10
2018-11-02T09:17:46.511Z,4.67
2018-11-02T09:20:16.683Z,3.93
2018-11-02T09:22:46.606Z,3.97
2018-11-02T09:25:16.672Z,4.00
2018-11-02T09:27:46.692Z,4.17
2018-11-02T09:30:17.367Z,4.23
2018-11-02T09:32:47.319Z,4.20
2018-11-02T09:35:17.287Z,4.00
2018-11-02T09:37:47.313Z,3.80
2018-11-02T09:40:17.349Z,4.10
2018-11-02T09:42:47.381Z,3.93
2018-11-02T09:45:17.259Z,4.83
2018-11-02T09:47:47.272Z,4.60
2018-11-02T09:50:17.239Z,3.77
2018-11-02T09:52:47.212Z,4.00
2018-11-02T09:55:17.353Z,4.23
2018-11-02T09:57:48.042Z,3.70
2018-11-02T10:00:17.947Z,4.20
2018-11-02T10:02:47.872Z,4.20
2018-11-02T10:05:17.872Z,4.30
2018-11-02T10:07:47.838Z,3.93
2018-11-02T10:10:17.829Z,3.80
2018-11-02T10:12:47.764Z,4.17
2018-11-02T10:15:17.680Z,4.37
2018-11-02T10:17:47.719Z,3.87
2018-11-02T10:20:17.711Z,3.90
2018-11-02T10:22:47.719Z,4.37
2018-11-02T10:25:17.700Z,4.23
2018-11-02T10:27:47.789Z,4.23
2018-11-02T10:30:17.782Z,4.30
2018-11-02T10:32:50.980Z,3.03
2018-11-02T10:35:21.310Z,3.93
2018-11-02T10:37:51.339Z,3.80
2018-11-02T10:40:21.738Z,4.10
2018-11-02T10:42:58.919Z,4.00
2018-11-02T10:45:34.428Z,3.83
2018-11-02T10:48:06.087Z,4.10
2018-11-02T10:50:35.956Z,4.60
2018-11-02T10:53:06.092Z,4.30
2018-11-02T10:55:36.232Z,3.80
2018-11-02T10:58:06.520Z,3.90
2018-11-02T11:00:41.519Z,4.77
2018-11-02T11:03:11.442Z,4.17
2018-11-02T11:05:41.433Z,4.47
2018-11-02T11:08:11.437Z,4.33
2018-11-02T11:10:41.429Z,4.13
2018-11-02T11:13:11.871Z,4.50
2018-11-02T11:15:41.472Z,4.40
2018-11-02T11:18:11.509Z,5.23
2018-11-02T11:20:41.452Z,3.90
2018-11-02T11:23:11.444Z,5.87
2018-11-02T11:25:41.463Z,5.87
2018-11-02T11:28:11.479Z,5.73
2018-11-02T11:30:41.554Z,5.03
2018-11-02T11:33:11.571Z,5.23
2018-11-02T11:35:41.579Z,4.97
2018-11-02T11:38:11.658Z,4.47
2018-11-02T11:40:41.735Z,4.77
2018-11-02T11:43:11.737Z,4.97
2018-11-02T11:45:41.729Z,4.57
2018-11-02T11:48:11.723Z,3.63
2018-11-02T11:50:41.678Z,4.27
2018-11-02T11:53:11.678Z,4.60
2018-11-02T11:55:41.672Z,3.60
2018-11-02T11:58:11.730Z,3.77
2018-11-02T12:00:41.738Z,3.23
2018-11-02T12:03:11.908Z,3.03
2018-11-02T12:05:41.930Z,3.40
2018-11-02T12:08:11.957Z,2.80
2018-11-02T12:10:42.045Z,2.70
2018-11-02T12:13:12.123Z,2.60
2018-11-02T12:15:42.224Z,2.60
2018-11-02T12:18:12.190Z,2.67
2018-11-02T12:20:42.248Z,2.80
2018-11-02T12:23:12.280Z,2.60
2018-11-02T12:25:42.204Z,2.87
2018-11-02T12:28:12.232Z,2.70
2018-11-02T12:30:42.260Z,2.50
2018-11-02T12:33:12.336Z,2.53
2018-11-02T12:35:42.416Z,2.50
2018-11-02T12:38:12.404Z,2.60
2018-11-02T12:40:42.415Z,2.40
2018-11-02T12:43:12.451Z,2.33
2018-11-02T12:45:42.411Z,2.80
2018-11-02T12:48:12.418Z,2.60
2018-11-02T12:50:42.431Z,2.40
2018-11-02T12:53:12.473Z,2.47
2018-11-02T12:55:42.501Z,2.57
2018-11-02T12:58:12.498Z,2.33
2018-11-02T13:00:42.479Z,2.37
2018-11-02T13:03:12.504Z,2.70
2018-11-02T13:05:42.479Z,2.07
2018-11-02T13:08:12.548Z,1.87
2018-11-02T13:10:42.554Z,1.73
2018-11-02T13:13:12.619Z,1.90
2018-11-02T13:15:42.563Z,2.10
2018-11-02T13:18:12.587Z,2.00
2018-11-02T13:20:42.613Z,1.90
2018-11-02T13:23:12.625Z,2.30
2018-11-02T13:25:42.738Z,2.10
2018-11-02T13:28:12.608Z,2.10
2018-11-02T13:30:43.097Z,2.60
2018-11-02T13:33:12.936Z,2.40
2018-11-02T13:35:42.980Z,2.87
2018-11-02T13:38:13.039Z,2.27
2018-11-02T13:40:43.037Z,2.73
2018-11-02T13:43:13.132Z,2.50
2018-11-02T13:45:43.047Z,3.27
2018-11-02T13:48:13.099Z,2.20
2018-11-02T13:50:43.191Z,2.23
2018-11-02T13:53:13.153Z,2.03
2018-11-02T13:55:43.135Z,2.27
2018-11-02T13:58:13.090Z,2.47
2018-11-02T14:00:43.139Z,3.70
2018-11-02T14:03:13.144Z,2.93
2018-11-02T14:05:43.186Z,2.67
2018-11-02T14:08:13.283Z,3.13
2018-11-02T14:10:43.387Z,3.20
2018-11-02T14:13:13.514Z,3.20
2018-11-02T14:15:43.511Z,2.60
2018-11-02T14:18:13.887Z,2.57
2018-11-02T14:20:43.830Z,2.23
2018-11-02T14:23:13.945Z,2.33
2018-11-02T14:25:44.896Z,2.47
2018-11-02T14:28:14.892Z,2.67
2018-11-02T14:30:44.998Z,2.13
2018-11-02T14:33:15.045Z,2.57
2018-11-02T14:35:45.120Z,2.17
2018-11-02T14:38:15.204Z,2.30
2018-11-02T14:40:45.352Z,2.43
2018-11-02T14:43:15.414Z,2.17
2018-11-02T14:45:45.516Z,2.43
2018-11-02T14:48:15.811Z,2.27
2018-11-02T14:50:45.800Z,2.20
2018-11-02T14:53:15.812Z,2.60
2018-11-02T14:55:45.819Z,2.37
2018-11-02T14:58:15.829Z,2.40
2018-11-02T15:00:45.815Z,2.07
2018-11-02T15:03:15.784Z,3.17
2018-11-02T15:05:45.823Z,8.63
2018-11-02T15:08:15.870Z,6.97
2018-11-02T15:10:45.883Z,8.40
2018-11-02T15:13:15.872Z,4.90
2018-11-02T15:15:45.911Z,3.70
2018-11-02T15:18:16.055Z,3.07
2018-11-02T15:20:46.031Z,2.00
2018-11-02T15:23:16.058Z,2.00
2018-11-02T15:25:46.087Z,2.37
2018-11-02T15:28:16.123Z,2.37
2018-11-02T15:30:46.111Z,1.97
2018-11-02T15:33:16.070Z,2.03
2018-11-02T15:35:48.522Z,1.80
2018-11-02T15:38:18.539Z,2.00
2018-11-02T15:40:48.601Z,1.80
2018-11-02T15:43:18.661Z,1.60
2018-11-02T15:45:48.607Z,1.50
2018-11-02T15:48:18.623Z,1.50
2018-11-02T15:50:48.631Z,1.60
2018-11-02T15:53:18.819Z,1.47
2018-11-02T15:55:48.802Z,1.67
2018-11-02T15:58:18.796Z,1.67
2018-11-02T16:00:48.881Z,1.40
2018-11-02T16:03:18.920Z,1.43
2018-11-02T16:05:48.987Z,1.40
2018-11-02T16:08:18.995Z,1.07
2018-11-02T16:10:49.028Z,1.20
2018-11-02T16:13:19.098Z,1.10
2018-11-02T16:15:49.076Z,1.30
2018-11-02T16:18:19.113Z,1.07
2018-11-02T16:20:49.170Z,1.10
2018-11-02T16:23:19.162Z,1.20
2018-11-02T16:25:49.120Z,1.27
2018-11-02T16:28:19.147Z,1.17
2018-11-02T16:30:49.136Z,1.10
2018-11-02T16:33:19.186Z,1.10
2018-11-02T16:35:49.355Z,1.37
2018-11-02T16:38:19.430Z,1.10
2018-11-02T16:40:49.494Z,1.10
2018-11-02T16:43:19.518Z,1.50
2018-11-02T16:45:49.623Z,1.20
2018-11-02T16:48:19.574Z,1.37
2018-11-02T16:50:49.449Z,1.00
2018-11-02T16:53:19.946Z,1.30
2018-11-02T17:07:10.809Z,1.30
2018-11-02T17:09:40.811Z,1.10
2018-11-02T17:15:23.876Z,1.17
2018-11-02T17:18:06.150Z,1.40
2018-11-02T17:29:54.901Z,1.60
2018-11-02T17:32:25.498Z,1.33
2018-11-02T17:35:17.545Z,1.40
2018-11-02T17:38:00.096Z,1.50
2018-11-02T17:40:49.777Z,1.40
2018-11-02T17:43:38.470Z,1.50
2018-11-02T17:46:20.710Z,1.40
2018-11-02T17:49:02.400Z,2.07
2018-11-02T17:51:45.175Z,1.60
2018-11-02T17:54:27.675Z,1.60
2018-11-02T17:56:58.132Z,1.60
2018-11-02T17:59:28.320Z,1.40
2018-11-02T18:01:58.272Z,1.73
2018-11-02T18:04:28.307Z,1.83
2018-11-02T18:07:10.390Z,1.60
2018-11-02T18:09:52.374Z,1.40
2018-11-02T18:12:34.711Z,1.30
2018-11-02T18:15:16.378Z,1.40
2018-11-02T18:17:57.918Z,1.43
2018-11-02T18:20:40.153Z,1.60
2018-11-02T18:23:10.192Z,1.43
2018-11-02T18:25:52.428Z,1.27
2018-11-02T18:28:33.962Z,1.43
2018-11-02T18:31:03.965Z,1.80
2018-11-02T18:33:33.984Z,1.27
2018-11-02T18:36:16.523Z,1.90
2018-11-02T18:38:59.280Z,1.20
2018-11-02T18:41:40.966Z,1.20
2018-11-02T18:44:22.917Z,1.33
2018-11-02T18:46:53.196Z,1.33
2018-11-02T18:49:35.218Z,1.60
2018-11-02T18:52:17.106Z,1.60
2018-11-02T18:54:59.657Z,1.40
2018-11-02T18:57:42.121Z,1.67
2018-11-02T19:00:23.937Z,1.40
2018-11-02T19:02:53.997Z,1.50
2018-11-02T19:05:24.254Z,1.40
2018-11-02T19:08:06.400Z,1.23
2018-11-02T19:10:48.744Z,1.90
2018-11-02T19:13:31.678Z,1.60
2018-11-02T19:16:01.793Z,1.93
2018-11-02T19:18:43.850Z,1.63
2018-11-02T19:21:14.480Z,1.60
2018-11-02T19:23:56.969Z,1.53
2018-11-02T19:26:39.708Z,1.80
2018-11-02T19:29:22.347Z,1.80
2018-11-02T19:31:52.391Z,1.67
2018-11-02T19:34:34.820Z,1.63
2018-11-02T19:37:16.593Z,1.70
2018-11-02T19:39:59.107Z,1.90
2018-11-02T19:42:41.337Z,2.13
2018-11-02T19:45:23.712Z,1.93
2018-11-02T19:48:06.470Z,2.10
2018-11-02T19:50:49.306Z,1.90
2018-11-02T19:53:31.550Z,2.17
2018-11-02T19:56:13.344Z,2.17
2018-11-02T19:58:55.914Z,2.13
2018-11-02T20:01:37.783Z,1.90
2018-11-02T20:04:20.502Z,1.97
2018-11-02T20:07:08.901Z,2.50
2018-11-02T20:09:51.702Z,2.43
2018-11-02T20:12:34.281Z,2.13
2018-11-02T20:15:17.618Z,1.97
2018-11-02T20:17:59.519Z,2.00
2018-11-02T20:20:42.032Z,2.30
2018-11-02T20:23:24.096Z,2.20
2018-11-02T20:26:06.935Z,2.40
2018-11-02T20:28:49.411Z,2.10
2018-11-02T20:31:31.294Z,2.20
2018-11-02T20:34:13.696Z,2.27
2018-11-02T20:36:55.359Z,2.30
2018-11-02T20:39:37.601Z,2.07
2018-11-02T20:42:20.361Z,2.20
2018-11-02T20:44:50.412Z,2.30
2018-11-02T20:50:24.518Z,2.47
2018-11-02T20:52:54.653Z,2.23
2018-11-02T20:55:37.269Z,2.43
2018-11-02T20:58:19.756Z,2.67
2018-11-02T21:00:49.809Z,2.40
2018-11-02T21:03:31.199Z,2.30
2018-11-02T21:06:01.184Z,2.37
2018-11-02T21:08:31.325Z,2.90
2018-11-02T21:11:01.187Z,2.50
2018-11-02T21:13:31.290Z,2.60
2018-11-02T21:16:01.384Z,2.47
2018-11-02T21:18:43.403Z,2.57
2018-11-02T21:21:26.078Z,2.80
2018-11-02T21:24:08.877Z,2.30
2018-11-02T21:26:38.859Z,2.40
2018-11-02T21:29:20.876Z,2.70
2018-11-02T21:32:03.633Z,2.67
2018-11-02T21:34:46.081Z,2.53
2018-11-02T21:37:28.239Z,2.43
2018-11-02T21:40:13.602Z,2.43
2018-11-02T21:42:55.513Z,2.80
2018-11-02T21:45:37.151Z,2.80
2018-11-02T21:48:19.014Z,2.20
2018-11-02T21:51:00.661Z,2.53
2018-11-02T21:53:30.764Z,2.80
2018-11-02T21:56:13.260Z,2.97
2018-11-02T21:58:43.948Z,3.13
2018-11-02T22:01:26.168Z,2.97
2018-11-02T22:03:57.266Z,3.03
2018-11-02T22:06:27.266Z,3.47
2018-11-02T22:09:09.560Z,3.40
2018-11-02T22:11:39.245Z,2.90
2018-11-02T22:14:21.055Z,2.70
2018-11-02T22:16:51.447Z,2.93
2018-11-02T22:19:21.541Z,3.37
2018-11-02T22:21:51.502Z,2.77
2018-11-02T22:24:33.169Z,3.17
2018-11-02T22:27:04.500Z,2.90
2018-11-02T22:29:34.437Z,3.00
2018-11-02T22:32:04.454Z,3.13
2018-11-02T22:34:34.468Z,3.27
2018-11-02T22:37:04.591Z,3.13
2018-11-02T22:39:34.563Z,3.33
2018-11-02T22:42:04.599Z,3.63
2018-11-02T22:44:34.618Z,2.90
2018-11-02T22:47:16.143Z,3.13
2018-11-02T22:49:46.204Z,3.50
2018-11-02T22:52:28.165Z,3.23
2018-11-02T22:55:15.751Z,3.30
2018-11-02T22:57:45.746Z,3.23
2018-11-02T23:00:28.212Z,2.97
2018-11-02T23:02:58.383Z,3.20
2018-11-02T23:05:28.466Z,3.10
2018-11-02T23:08:10.535Z,2.90
2018-11-02T23:10:40.582Z,2.93
2018-11-02T23:13:22.487Z,2.70
2018-11-02T23:16:04.610Z,2.90
2018-11-02T23:18:35.011Z,2.93
2018-11-02T23:21:17.139Z,3.47
2018-11-02T23:23:59.098Z,3.10
2018-11-02T23:26:47.080Z,3.30
2018-11-02T23:29:17.323Z,3.00
2018-11-02T23:31:47.220Z,3.20
2018-11-02T23:34:18.146Z,3.20
2018-11-02T23:36:48.160Z,3.03
2018-11-02T23:39:18.148Z,3.00
2018-11-02T23:41:48.191Z,2.90
2018-11-02T23:44:18.180Z,3.07
2018-11-02T23:46:48.238Z,3.07
2018-11-02T23:49:18.226Z,3.13
2018-11-02T23:52:00.482Z,3.07
2018-11-02T23:54:42.823Z,3.13
2018-11-02T23:57:24.617Z,2.73
